createdAt,value
2023-05-14T00:00:08.497Z,70.15
2023-05-14T00:05:31.269Z,70.42
2023-05-14T00:10:34.222Z,70.57
2023-05-14T00:15:37.054Z,70.45
2023-05-14T00:20:40.918Z,71.09
2023-05-14T00:25:43.688Z,71.20
2023-05-14T00:30:46.572Z,71.46
2023-05-14T00:35:49.412Z,71.46
2023-05-14T00:40:52.211Z,71.84
2023-05-14T00:45:55.150Z,71.59
2023-05-14T00:50:57.898Z,71.93
2023-05-14T00:56:00.681Z,72.13
2023-05-14T01:01:03.532Z,72.24
2023-05-14T01:06:19.847Z,72.10
2023-05-14T01:11:43.916Z,71.70
2023-05-14T01:16:46.856Z,71.96
2023-05-14T01:21:49.706Z,72.12
2023-05-14T01:26:53.466Z,72.28
2023-05-14T01:31:59.120Z,72.76
2023-05-14T01:37:01.964Z,72.78
2023-05-14T01:42:05.896Z,74.09
2023-05-14T01:47:08.695Z,74.46
2023-05-14T01:52:12.133Z,74.47
2023-05-14T01:57:14.861Z,74.89
2023-05-14T02:02:17.702Z,75.00
2023-05-14T02:07:20.799Z,75.77
2023-05-14T02:12:23.697Z,75.71
2023-05-14T02:17:26.490Z,74.74
2023-05-14T02:22:29.356Z,74.95
2023-05-14T02:27:32.298Z,74.93
2023-05-14T02:32:37.836Z,74.61
2023-05-14T02:37:40.771Z,74.55
2023-05-14T02:42:43.512Z,74.63
2023-05-14T02:47:46.372Z,74.39
2023-05-14T02:52:49.239Z,74.83
2023-05-14T02:57:53.299Z,75.28
2023-05-14T03:02:56.209Z,76.06
2023-05-14T03:07:59.329Z,76.04
2023-05-14T03:13:02.066Z,76.26
2023-05-14T03:18:04.985Z,76.21
2023-05-14T03:23:07.795Z,75.63
2023-05-14T03:28:10.559Z,75.55
2023-05-14T03:33:13.313Z,75.79
2023-05-14T03:38:16.356Z,76.09
2023-05-14T03:43:19.105Z,76.04
2023-05-14T03:48:21.923Z,75.96
2023-05-14T03:53:24.782Z,75.90
2023-05-14T03:58:27.550Z,76.27
2023-05-14T04:03:30.778Z,76.60
2023-05-14T04:08:33.834Z,77.21
2023-05-14T04:13:36.762Z,77.53
2023-05-14T04:18:40.241Z,77.53
2023-05-14T04:23:43.075Z,77.45
2023-05-14T04:28:45.844Z,77.32
2023-05-14T04:33:48.666Z,76.97
2023-05-14T04:38:51.687Z,76.63
2023-05-14T04:43:56.408Z,76.19
2023-05-14T04:48:59.177Z,75.82
2023-05-14T04:54:01.952Z,75.57
2023-05-14T04:59:04.754Z,75.54
2023-05-14T05:04:26.228Z,75.02
2023-05-14T05:09:29.124Z,74.97
2023-05-14T05:14:31.905Z,74.74
2023-05-14T05:19:43.078Z,73.85
2023-05-14T05:24:49.125Z,73.53
2023-05-14T05:29:52.737Z,73.40
2023-05-14T05:34:55.866Z,72.63
2023-05-14T05:39:58.655Z,72.17
2023-05-14T05:45:01.394Z,71.67
2023-05-14T05:50:05.013Z,71.44
2023-05-14T05:55:08.374Z,70.99
2023-05-14T06:00:15.294Z,70.29
2023-05-14T06:05:19.319Z,69.26
2023-05-14T06:10:22.342Z,68.94
2023-05-14T06:15:25.618Z,68.36
2023-05-14T06:20:28.408Z,67.68
2023-05-14T06:25:31.382Z,67.06
2023-05-14T06:30:34.269Z,66.42
2023-05-14T06:35:37.079Z,65.31
2023-05-14T06:40:39.932Z,64.75
2023-05-14T06:45:42.779Z,63.87
2023-05-14T06:50:47.244Z,63.55
2023-05-14T06:55:50.127Z,62.49
2023-05-14T07:00:52.941Z,61.68
2023-05-14T07:05:55.728Z,60.05
2023-05-14T07:10:58.659Z,59.17
2023-05-14T07:16:01.443Z,59.62
2023-05-14T07:21:07.712Z,59.61
2023-05-14T07:26:10.888Z,59.34
2023-05-14T07:31:13.794Z,56.60
2023-05-14T07:36:16.607Z,54.75
2023-05-14T07:41:19.459Z,51.69
2023-05-14T07:46:22.395Z,51.35
2023-05-14T07:51:28.266Z,50.65
2023-05-14T07:56:31.439Z,50.05
2023-05-14T08:01:34.203Z,49.00
2023-05-14T08:06:37.561Z,48.51
2023-05-14T08:11:41.769Z,47.67
2023-05-14T08:16:44.559Z,46.98
2023-05-14T08:21:47.350Z,44.73
2023-05-14T08:26:50.120Z,43.25
2023-05-14T08:31:52.916Z,41.99
2023-05-14T08:36:55.732Z,40.16
2023-05-14T08:41:58.649Z,40.54
2023-05-14T08:47:01.417Z,39.21
2023-05-14T08:52:07.411Z,38.57
2023-05-14T08:57:10.706Z,38.47
2023-05-14T09:02:15.125Z,36.94
2023-05-14T09:07:20.720Z,37.39
2023-05-14T09:12:23.616Z,36.81
2023-05-14T09:17:27.976Z,35.50
2023-05-14T09:22:33.373Z,34.76
2023-05-14T09:27:36.567Z,34.66
2023-05-14T09:32:44.057Z,34.50
2023-05-14T09:37:49.500Z,33.87
2023-05-14T09:42:52.218Z,32.54
2023-05-14T09:47:56.642Z,32.43
2023-05-14T09:52:59.522Z,30.07
2023-05-14T09:58:02.434Z,30.71
2023-05-14T10:03:08.181Z,30.37
2023-05-14T10:08:26.919Z,29.44
2023-05-14T10:13:38.152Z,28.12
2023-05-14T10:18:43.517Z,26.55
2023-05-14T10:23:46.437Z,25.58
2023-05-14T10:28:49.534Z,25.14
2023-05-14T10:33:58.019Z,23.80
2023-05-14T10:39:04.508Z,23.48
2023-05-14T10:44:09.981Z,22.28
2023-05-14T10:49:13.044Z,21.74
2023-05-14T10:54:16.968Z,20.38
2023-05-14T10:59:19.797Z,19.61
2023-05-14T11:04:27.200Z,19.89
2023-05-14T11:09:30.037Z,19.39
2023-05-14T11:14:34.948Z,18.23
2023-05-14T11:19:37.831Z,17.67
2023-05-14T11:24:42.527Z,17.02
2023-05-14T11:29:46.321Z,15.28
2023-05-14T11:34:49.209Z,16.22
2023-05-14T11:39:54.798Z,16.68
2023-05-14T11:44:57.624Z,15.30
2023-05-14T11:50:01.220Z,14.37
2023-05-14T11:55:04.485Z,14.14
2023-05-14T12:00:13.614Z,12.93
2023-05-14T12:05:16.666Z,12.61
2023-05-14T12:10:19.588Z,12.68
2023-05-14T12:15:24.791Z,11.64
2023-05-14T12:20:28.706Z,11.14
2023-05-14T12:25:31.723Z,11.38
2023-05-14T12:30:38.117Z,11.31
2023-05-14T12:35:41.910Z,11.65
2023-05-14T12:40:44.757Z,11.51
2023-05-14T12:45:47.479Z,11.43
2023-05-14T12:50:51.297Z,11.00
2023-05-14T12:55:54.790Z,10.61
2023-05-14T13:00:57.915Z,10.01
2023-05-14T13:06:01.320Z,10.37
2023-05-14T13:11:04.271Z,11.80
2023-05-14T13:16:07.398Z,12.07
2023-05-14T13:21:10.182Z,11.94
2023-05-14T13:26:13.040Z,11.28
2023-05-14T13:31:16.362Z,10.77
2023-05-14T13:36:19.169Z,10.37
2023-05-14T13:41:22.268Z,9.59
2023-05-14T13:46:25.192Z,10.72
2023-05-14T13:51:28.170Z,10.95
2023-05-14T13:56:31.028Z,12.59
2023-05-14T14:01:33.876Z,14.69
2023-05-14T14:06:36.696Z,15.78
2023-05-14T14:11:41.019Z,13.94
2023-05-14T14:16:44.356Z,14.50
2023-05-14T14:21:47.392Z,15.10
2023-05-14T14:26:50.266Z,16.04
2023-05-14T14:31:53.485Z,16.24
2023-05-14T14:36:56.583Z,15.90
2023-05-14T14:41:59.930Z,16.18
2023-05-14T14:47:02.677Z,16.92
2023-05-14T14:52:05.558Z,17.77
2023-05-14T14:57:08.638Z,18.54
2023-05-14T15:02:11.444Z,18.41
2023-05-14T15:07:16.530Z,18.53
2023-05-14T15:12:19.254Z,19.18
2023-05-14T15:17:22.133Z,19.58
2023-05-14T15:22:24.933Z,19.69
2023-05-14T15:27:27.824Z,20.07
2023-05-14T15:32:30.773Z,20.09
2023-05-14T15:37:42.004Z,20.44
2023-05-14T15:42:44.906Z,20.86
2023-05-14T15:48:08.097Z,21.20
2023-05-14T15:53:10.970Z,21.25
2023-05-14T15:58:13.937Z,21.58
2023-05-14T16:03:17.450Z,21.96
2023-05-14T16:08:20.346Z,22.67
2023-05-14T16:13:23.121Z,23.31
2023-05-14T16:18:26.317Z,23.78
2023-05-14T16:23:29.314Z,24.22
2023-05-14T16:28:34.990Z,25.41
2023-05-14T16:33:37.902Z,25.55
2023-05-14T16:38:52.306Z,25.94
2023-05-14T16:44:03.578Z,26.42
2023-05-14T16:49:06.792Z,25.97
2023-05-14T16:54:09.904Z,26.28
2023-05-14T16:59:12.725Z,26.63
2023-05-14T17:04:17.745Z,26.91
2023-05-14T17:09:20.946Z,27.21
2023-05-14T17:14:23.915Z,27.53
2023-05-14T17:19:26.892Z,28.03
2023-05-14T17:24:29.685Z,28.81
2023-05-14T17:29:32.498Z,29.39
2023-05-14T17:34:35.406Z,30.18
2023-05-14T17:39:38.291Z,30.81
2023-05-14T17:44:41.034Z,31.40
2023-05-14T17:49:43.878Z,31.41
2023-05-14T17:54:46.806Z,31.74
2023-05-14T17:59:49.577Z,31.86
2023-05-14T18:04:52.538Z,32.34
2023-05-14T18:09:55.413Z,32.83
2023-05-14T18:14:58.198Z,33.14
2023-05-14T18:20:00.968Z,33.91
2023-05-14T18:25:04.345Z,34.58
2023-05-14T18:30:08.946Z,35.42
2023-05-14T18:35:12.335Z,36.42
2023-05-14T18:40:16.997Z,36.64
2023-05-14T18:45:22.558Z,37.47
2023-05-14T18:50:25.847Z,37.99
2023-05-14T18:55:28.895Z,38.63
2023-05-14T19:00:31.992Z,38.93
2023-05-14T19:05:34.939Z,39.48
2023-05-14T19:10:37.780Z,39.94
2023-05-14T19:15:40.855Z,40.68
2023-05-14T19:20:46.263Z,40.54
2023-05-14T19:25:49.105Z,40.33
2023-05-14T19:30:53.338Z,40.15
2023-05-14T19:35:56.341Z,40.08
2023-05-14T19:40:59.308Z,39.88
2023-05-14T19:46:04.474Z,40.11
2023-05-14T19:51:08.604Z,40.38
2023-05-14T19:56:11.508Z,40.47
2023-05-14T20:01:14.799Z,40.32
2023-05-14T20:06:18.510Z,40.49
2023-05-14T20:11:21.604Z,40.60
2023-05-14T20:16:24.734Z,40.74
2023-05-14T20:21:27.530Z,41.04
2023-05-14T20:26:30.561Z,41.43
2023-05-14T20:31:33.460Z,41.67
2023-05-14T20:36:36.284Z,41.56
2023-05-14T20:41:39.105Z,41.60
2023-05-14T20:46:41.968Z,41.71
2023-05-14T20:51:44.933Z,41.85
2023-05-14T20:56:47.717Z,42.29
2023-05-14T21:01:51.006Z,42.32
2023-05-14T21:06:54.137Z,42.32
2023-05-14T21:11:57.119Z,42.53
2023-05-14T21:17:00.163Z,42.88
2023-05-14T21:22:02.988Z,43.05
2023-05-14T21:27:06.016Z,43.13
2023-05-14T21:32:08.941Z,43.57
2023-05-14T21:37:11.737Z,43.83
2023-05-14T21:42:16.171Z,44.00
2023-05-14T21:47:19.973Z,44.25
2023-05-14T21:52:22.837Z,43.98
2023-05-14T21:57:28.240Z,43.78
2023-05-14T22:02:32.147Z,43.93
2023-05-14T22:07:35.088Z,43.73
2023-05-14T22:12:37.934Z,43.84
2023-05-14T22:17:41.409Z,43.54
2023-05-14T22:22:44.241Z,43.58
2023-05-14T22:27:47.018Z,43.38
2023-05-14T22:32:49.798Z,43.26
2023-05-14T22:37:52.640Z,42.98
2023-05-14T22:42:55.460Z,42.77
2023-05-14T22:47:58.503Z,42.65
2023-05-14T22:53:01.246Z,42.74
2023-05-14T22:58:04.122Z,42.86
2023-05-14T23:03:06.979Z,42.63
2023-05-14T23:08:10.724Z,42.69
2023-05-14T23:13:13.526Z,42.60
2023-05-14T23:18:16.577Z,42.62
2023-05-14T23:23:20.554Z,42.56
2023-05-14T23:28:23.273Z,42.58
2023-05-14T23:33:26.624Z,42.51
2023-05-14T23:38:29.404Z,42.44
2023-05-14T23:43:33.873Z,42.37
2023-05-14T23:48:36.733Z,42.56
2023-05-14T23:53:39.615Z,42.41
2023-05-14T23:58:42.485Z,42.50
